createdAt,value
2017-11-09T00:00:05.254Z,99.50
2017-11-09T00:02:32.119Z,99.40
2017-11-09T00:05:04.254Z,99.10
2017-11-09T00:07:30.258Z,99.10
2017-11-09T00:09:56.967Z,99.10
2017-11-09T00:12:22.934Z,99.10
2017-11-09T00:14:48.937Z,99.10
2017-11-09T00:17:15.658Z,99.60
2017-11-09T00:19:41.647Z,99.60
2017-11-09T00:22:08.861Z,99.80
2017-11-09T00:24:35.094Z,99.40
2017-11-09T00:27:01.162Z,99.30
2017-11-09T00:29:28.618Z,99.40
2017-11-09T00:31:54.601Z,99.30
2017-11-09T00:34:20.703Z,99.10
2017-11-09T00:36:47.448Z,98.90
2017-11-09T00:39:14.153Z,99.10
2017-11-09T00:41:40.974Z,99.10
2017-11-09T00:44:06.942Z,99.20
2017-11-09T00:46:33.660Z,99.30
2017-11-09T00:48:59.910Z,99.30
2017-11-09T00:51:26.713Z,99.50
2017-11-09T00:53:52.695Z,99.50
2017-11-09T00:56:18.684Z,99.40
2017-11-09T00:58:45.390Z,99.50
2017-11-09T01:01:11.403Z,99.40
2017-11-09T01:03:37.403Z,99.30
2017-11-09T01:06:03.367Z,99.40
2017-11-09T01:08:29.350Z,99.60
2017-11-09T01:10:55.351Z,99.50
2017-11-09T01:13:21.342Z,99.60
2017-11-09T01:15:48.058Z,99.50
2017-11-09T01:18:14.088Z,99.70
2017-11-09T01:20:40.042Z,99.50
2017-11-09T01:23:06.750Z,99.40
2017-11-09T01:25:32.744Z,99.40
2017-11-09T01:27:58.729Z,99.40
2017-11-09T01:30:25.461Z,99.40
2017-11-09T01:32:52.393Z,99.50
2017-11-09T01:35:18.366Z,99.50
2017-11-09T01:37:44.337Z,99.40
2017-11-09T01:40:10.320Z,99.50
2017-11-09T01:42:36.331Z,99.90
2017-11-09T01:45:02.292Z,99.90
2017-11-09T01:47:28.289Z,99.60
2017-11-09T01:49:54.272Z,99.70
2017-11-09T01:52:20.277Z,99.90
2017-11-09T01:54:47.021Z,99.90
2017-11-09T01:57:13.741Z,99.30
2017-11-09T01:59:40.493Z,99.20
2017-11-09T02:02:07.221Z,99.60
2017-11-09T02:04:33.203Z,99.60
2017-11-09T02:06:59.193Z,99.40
2017-11-09T02:09:25.165Z,99.50
2017-11-09T02:11:51.122Z,99.50
2017-11-09T02:14:18.061Z,99.20
2017-11-09T02:16:44.775Z,99.40
2017-11-09T02:19:10.747Z,99.30
2017-11-09T02:21:36.717Z,99.40
2017-11-09T02:24:02.735Z,99.50
2017-11-09T02:26:28.710Z,99.40
2017-11-09T02:28:54.731Z,99.60
2017-11-09T02:31:20.714Z,99.70
2017-11-09T02:33:48.174Z,99.50
2017-11-09T02:36:14.199Z,99.50
2017-11-09T02:38:40.175Z,99.70
2017-11-09T02:41:06.145Z,99.50
2017-11-09T02:43:32.127Z,99.50
2017-11-09T02:45:58.108Z,99.90
2017-11-09T02:48:24.104Z,99.90
2017-11-09T02:50:50.079Z,99.40
2017-11-09T02:53:16.076Z,99.40
2017-11-09T02:55:42.087Z,99.30
2017-11-09T02:58:08.813Z,99.80
2017-11-09T03:00:34.828Z,99.70
2017-11-09T03:03:00.804Z,99.50
2017-11-09T03:05:26.798Z,99.70
2017-11-09T03:07:53.548Z,99.60
2017-11-09T03:10:19.530Z,99.60
2017-11-09T03:12:45.693Z,99.70
2017-11-09T03:15:11.677Z,99.50
2017-11-09T03:17:37.645Z,99.50
2017-11-09T03:20:03.696Z,99.30
2017-11-09T03:22:29.700Z,99.60
2017-11-09T03:24:55.673Z,99.70
2017-11-09T03:27:21.938Z,99.40
2017-11-09T03:29:47.939Z,99.50
2017-11-09T03:32:14.656Z,99.50
2017-11-09T03:34:40.616Z,99.50
2017-11-09T03:37:06.598Z,99.20
2017-11-09T03:39:32.565Z,99.50
2017-11-09T03:41:58.570Z,99.30
2017-11-09T03:44:25.331Z,99.30
2017-11-09T03:46:51.306Z,99.30
2017-11-09T03:49:17.276Z,99.40
2017-11-09T03:51:43.252Z,99.20
2017-11-09T03:54:09.219Z,99.10
2017-11-09T03:56:35.194Z,99.40
2017-11-09T03:59:01.915Z,99.50
2017-11-09T04:01:27.882Z,99.20
2017-11-09T04:03:53.869Z,99.30
2017-11-09T04:06:19.831Z,99.40
2017-11-09T04:08:45.807Z,99.10
2017-11-09T04:11:11.788Z,99.20
2017-11-09T04:13:37.754Z,99.00
2017-11-09T04:16:03.728Z,99.10
2017-11-09T04:18:30.022Z,98.70
2017-11-09T04:20:56.734Z,99.10
2017-11-09T04:23:22.714Z,99.10
2017-11-09T04:25:48.670Z,99.00
2017-11-09T04:28:14.883Z,99.20
2017-11-09T04:30:40.851Z,99.10
2017-11-09T04:33:07.541Z,99.00
2017-11-09T04:35:33.534Z,99.00
2017-11-09T04:37:59.517Z,99.20
2017-11-09T04:40:25.491Z,99.20
2017-11-09T04:42:51.769Z,99.10
2017-11-09T04:45:17.743Z,99.00
2017-11-09T04:47:43.725Z,99.20
2017-11-09T04:50:10.489Z,99.50
2017-11-09T04:52:36.601Z,99.50
2017-11-09T04:55:03.302Z,99.50
2017-11-09T04:57:29.276Z,99.50
2017-11-09T04:59:55.269Z,99.30
2017-11-09T05:02:21.997Z,99.60
2017-11-09T05:04:48.709Z,99.70
2017-11-09T05:07:14.686Z,99.70
2017-11-09T05:09:40.726Z,99.90
2017-11-09T05:12:06.702Z,99.90
2017-11-09T05:14:32.677Z,99.90
2017-11-09T05:16:58.695Z,99.90
2017-11-09T05:19:24.698Z,99.90
2017-11-09T05:21:50.685Z,99.90
2017-11-09T05:24:16.925Z,99.90
2017-11-09T05:26:43.634Z,99.90
2017-11-09T05:29:09.594Z,99.90
2017-11-09T05:31:36.342Z,99.90
2017-11-09T05:34:02.322Z,99.90
2017-11-09T05:36:28.285Z,99.90
2017-11-09T05:38:55.118Z,99.90
2017-11-09T05:41:21.811Z,99.90
2017-11-09T05:43:47.773Z,99.90
2017-11-09T05:46:14.602Z,99.90
2017-11-09T05:48:41.326Z,99.90
2017-11-09T05:51:07.285Z,99.90
2017-11-09T05:53:33.997Z,99.70
2017-11-09T05:56:00.703Z,99.90
2017-11-09T05:58:26.678Z,99.90
2017-11-09T06:00:52.659Z,99.90
2017-11-09T06:03:18.623Z,99.90
2017-11-09T06:05:44.589Z,99.90
2017-11-09T06:08:10.588Z,99.90
2017-11-09T06:10:36.559Z,99.90
2017-11-09T06:13:02.531Z,99.90
2017-11-09T06:15:28.785Z,99.90
2017-11-09T06:17:54.729Z,99.90
2017-11-09T06:20:20.727Z,99.90
2017-11-09T06:22:46.704Z,99.90
2017-11-09T06:25:13.414Z,99.90
2017-11-09T06:27:39.434Z,99.90
2017-11-09T06:30:06.167Z,99.90
2017-11-09T06:32:32.118Z,99.90
2017-11-09T06:34:58.883Z,99.90
2017-11-09T06:37:31.716Z,99.90
2017-11-09T06:39:57.691Z,99.90
2017-11-09T06:42:23.681Z,99.90
2017-11-09T06:44:50.379Z,99.90
2017-11-09T06:47:16.341Z,99.90
2017-11-09T06:49:43.081Z,99.90
2017-11-09T06:52:09.789Z,99.90
2017-11-09T06:54:35.756Z,99.90
2017-11-09T06:57:01.762Z,99.90
2017-11-09T06:59:28.459Z,99.90
2017-11-09T07:01:54.439Z,99.90
2017-11-09T07:04:20.406Z,99.90
2017-11-09T07:06:46.397Z,99.90
2017-11-09T07:09:12.494Z,99.90
2017-11-09T07:11:39.203Z,99.90
2017-11-09T07:14:05.195Z,99.90
2017-11-09T07:16:31.352Z,99.90
2017-11-09T07:18:57.322Z,99.90
2017-11-09T07:21:23.302Z,99.90
2017-11-09T07:23:49.298Z,99.90
2017-11-09T07:26:15.289Z,99.90
2017-11-09T07:28:41.284Z,99.90
2017-11-09T07:31:07.615Z,99.90
2017-11-09T07:33:34.326Z,99.90
2017-11-09T07:36:00.310Z,99.90
2017-11-09T07:38:26.298Z,99.90
2017-11-09T07:40:53.004Z,99.90
2017-11-09T07:43:20.068Z,99.90
2017-11-09T07:45:46.044Z,99.90
2017-11-09T07:48:12.034Z,99.90
2017-11-09T07:50:38.775Z,99.90
2017-11-09T07:53:04.742Z,99.90
2017-11-09T07:55:30.714Z,99.90
2017-11-09T07:57:56.681Z,99.90
2017-11-09T08:00:22.646Z,99.90
2017-11-09T08:02:49.347Z,99.90
2017-11-09T08:05:15.359Z,99.90
2017-11-09T08:07:41.330Z,99.90
2017-11-09T08:10:07.306Z,99.90
2017-11-09T08:12:33.293Z,99.90
2017-11-09T08:14:59.272Z,99.90
2017-11-09T08:17:25.248Z,99.90
2017-11-09T08:19:51.539Z,99.90
2017-11-09T08:22:18.251Z,99.90
2017-11-09T08:24:48.350Z,99.90
2017-11-09T08:27:15.506Z,99.90
2017-11-09T08:29:43.834Z,99.90
2017-11-09T08:32:12.866Z,99.90
2017-11-09T08:34:39.134Z,99.90
2017-11-09T08:37:05.105Z,99.90
2017-11-09T08:39:31.070Z,99.90
2017-11-09T08:41:57.065Z,99.90
2017-11-09T08:44:23.038Z,99.90
2017-11-09T08:46:49.745Z,99.90
2017-11-09T08:49:15.695Z,99.90
2017-11-09T08:51:42.721Z,99.90
2017-11-09T08:54:08.690Z,99.90
2017-11-09T08:56:34.641Z,99.90
2017-11-09T08:59:00.622Z,99.90
2017-11-09T09:01:26.767Z,99.90
2017-11-09T09:03:52.733Z,99.90
2017-11-09T09:06:19.491Z,99.90
2017-11-09T09:08:46.199Z,99.90
2017-11-09T09:11:12.196Z,99.90
2017-11-09T09:13:38.477Z,99.90
2017-11-09T09:16:05.207Z,99.90
2017-11-09T09:18:31.919Z,99.90
2017-11-09T09:21:01.738Z,99.90
2017-11-09T09:23:27.731Z,99.90
2017-11-09T09:25:59.886Z,99.90
2017-11-09T09:28:31.794Z,99.90
2017-11-09T09:30:57.794Z,99.90
2017-11-09T09:33:27.512Z,99.90
2017-11-09T09:35:57.859Z,99.90
2017-11-09T09:41:35.384Z,99.90
2017-11-09T09:44:02.371Z,99.90
2017-11-09T09:46:28.356Z,99.90
2017-11-09T09:48:55.099Z,99.90
2017-11-09T09:51:21.093Z,99.90
2017-11-09T09:53:47.806Z,99.90
2017-11-09T09:56:13.809Z,99.90
2017-11-09T09:58:39.775Z,99.90
2017-11-09T10:01:05.746Z,99.90
2017-11-09T10:03:31.751Z,99.90
2017-11-09T10:05:57.714Z,99.90
2017-11-09T10:08:23.678Z,99.90
2017-11-09T10:10:51.234Z,99.90
2017-11-09T10:13:17.961Z,99.90
2017-11-09T10:15:44.706Z,99.90
2017-11-09T10:18:11.450Z,99.90
2017-11-09T10:20:38.167Z,99.90
2017-11-09T10:23:04.138Z,99.90
2017-11-09T10:25:30.105Z,99.90
2017-11-09T10:27:56.079Z,99.90
2017-11-09T10:30:22.035Z,99.90
2017-11-09T10:32:48.022Z,99.90
2017-11-09T10:35:13.978Z,99.80
2017-11-09T10:37:39.947Z,99.60
2017-11-09T10:40:05.945Z,99.50
2017-11-09T10:42:31.915Z,99.80
2017-11-09T10:44:57.902Z,99.90
2017-11-09T10:47:24.632Z,99.90
2017-11-09T10:49:50.593Z,99.90
2017-11-09T10:52:16.609Z,99.90
2017-11-09T10:54:42.578Z,99.90
2017-11-09T10:57:08.543Z,99.80
2017-11-09T10:59:34.565Z,99.90
2017-11-09T11:02:00.551Z,99.60
2017-11-09T11:04:26.511Z,99.60
2017-11-09T11:06:52.719Z,99.70
2017-11-09T11:09:19.454Z,99.70
2017-11-09T11:11:46.161Z,99.70
2017-11-09T11:14:12.202Z,99.60
2017-11-09T11:16:38.174Z,99.80
2017-11-09T11:19:04.138Z,99.70
2017-11-09T11:21:30.145Z,99.90
2017-11-09T11:23:56.132Z,99.70
2017-11-09T11:26:22.090Z,99.80
2017-11-09T11:28:48.101Z,99.70
2017-11-09T11:31:14.085Z,99.50
2017-11-09T11:33:40.069Z,99.50
2017-11-09T11:36:06.325Z,99.70
2017-11-09T11:38:33.018Z,99.90
2017-11-09T11:40:59.017Z,99.90
2017-11-09T11:43:26.638Z,99.90
2017-11-09T11:45:53.376Z,99.90
2017-11-09T11:48:20.134Z,99.90
2017-11-09T11:50:46.153Z,99.90
2017-11-09T11:53:12.170Z,99.90
2017-11-09T11:55:38.910Z,99.50
2017-11-09T11:58:05.626Z,99.40
2017-11-09T12:00:31.649Z,99.40
2017-11-09T12:02:57.608Z,99.10
2017-11-09T12:05:23.582Z,99.00
2017-11-09T12:07:49.641Z,98.10
2017-11-09T12:10:16.353Z,98.70
2017-11-09T12:12:42.314Z,98.70
2017-11-09T12:15:08.604Z,98.00
2017-11-09T12:17:34.576Z,98.60
2017-11-09T12:20:00.558Z,98.30
2017-11-09T12:22:28.665Z,98.70
2017-11-09T12:24:54.637Z,98.70
2017-11-09T12:27:20.606Z,98.80
2017-11-09T12:29:46.623Z,98.50
2017-11-09T12:32:12.612Z,98.40
2017-11-09T12:34:38.573Z,98.60
2017-11-09T12:37:04.562Z,98.70
2017-11-09T12:39:31.282Z,98.90
2017-11-09T12:41:57.250Z,98.80
2017-11-09T12:44:23.249Z,98.80
2017-11-09T12:46:49.970Z,98.70
2017-11-09T12:49:15.954Z,98.70
2017-11-09T12:51:41.946Z,98.40
2017-11-09T12:54:07.914Z,98.60
2017-11-09T12:56:33.874Z,98.70
2017-11-09T12:59:00.602Z,98.50
2017-11-09T13:01:27.325Z,98.30
2017-11-09T13:03:53.307Z,98.30
2017-11-09T13:06:19.279Z,98.40
2017-11-09T13:08:45.253Z,98.30
2017-11-09T13:11:11.241Z,98.00
2017-11-09T13:13:37.979Z,98.20
2017-11-09T13:16:04.709Z,98.40
2017-11-09T13:18:31.458Z,98.40
2017-11-09T13:20:58.170Z,98.40
2017-11-09T13:23:24.134Z,98.40
2017-11-09T13:25:50.438Z,98.20
2017-11-09T13:28:17.141Z,98.20
2017-11-09T13:30:43.106Z,98.20
2017-11-09T13:33:09.858Z,98.20
2017-11-09T13:35:35.818Z,98.20
2017-11-09T13:38:01.793Z,98.40
2017-11-09T13:40:27.797Z,98.20
2017-11-09T13:42:59.626Z,98.20
2017-11-09T13:45:25.591Z,97.90
2017-11-09T13:47:52.334Z,97.50
2017-11-09T13:50:19.068Z,97.60
2017-11-09T13:52:45.769Z,97.60
2017-11-09T13:55:11.771Z,97.60
2017-11-09T13:57:37.749Z,98.40
2017-11-09T14:00:04.474Z,98.30
2017-11-09T14:02:31.186Z,98.70
2017-11-09T14:04:57.150Z,98.40
2017-11-09T14:07:23.875Z,98.10
2017-11-09T14:09:49.870Z,98.10
2017-11-09T14:12:15.853Z,98.20
2017-11-09T14:14:41.807Z,98.30
2017-11-09T14:17:07.809Z,98.30
2017-11-09T14:19:33.782Z,98.30
2017-11-09T14:22:00.533Z,98.50
2017-11-09T14:24:27.246Z,98.40
2017-11-09T14:26:53.217Z,98.40
2017-11-09T14:29:19.226Z,98.50
2017-11-09T14:31:45.186Z,98.60
2017-11-09T14:34:11.178Z,98.40
2017-11-09T14:36:37.379Z,98.20
2017-11-09T14:39:04.132Z,98.20
2017-11-09T14:41:30.103Z,98.30
2017-11-09T14:43:56.138Z,98.20
2017-11-09T14:46:22.108Z,98.10
2017-11-09T14:48:48.126Z,98.40
2017-11-09T14:51:14.124Z,98.40
2017-11-09T14:53:40.861Z,98.50
2017-11-09T14:56:06.850Z,98.50
2017-11-09T14:58:33.119Z,98.70
2017-11-09T15:00:59.843Z,98.90
2017-11-09T15:03:25.809Z,98.90
2017-11-09T15:05:51.806Z,99.20
2017-11-09T15:08:18.555Z,99.00
2017-11-09T15:10:44.547Z,98.90
2017-11-09T15:13:10.781Z,98.90
2017-11-09T15:15:37.498Z,99.10
2017-11-09T15:18:03.490Z,99.10
2017-11-09T15:20:29.523Z,99.20
2017-11-09T15:22:55.486Z,99.10
2017-11-09T15:25:22.227Z,99.20
2017-11-09T15:27:49.171Z,99.50
2017-11-09T15:30:15.907Z,99.40
2017-11-09T15:32:41.881Z,99.30
2017-11-09T15:35:10.305Z,99.40
2017-11-09T15:37:37.748Z,99.50
2017-11-09T15:40:03.743Z,99.40
2017-11-09T15:42:29.723Z,99.50
2017-11-09T15:44:56.427Z,99.50
2017-11-09T15:47:22.398Z,99.50
2017-11-09T15:49:48.349Z,99.40
2017-11-09T15:52:14.324Z,99.40
2017-11-09T15:54:41.376Z,99.30
2017-11-09T15:57:07.346Z,99.30
2017-11-09T15:59:33.307Z,99.30
2017-11-09T16:02:00.045Z,99.50
2017-11-09T16:04:26.771Z,99.60
2017-11-09T16:06:52.741Z,99.60
2017-11-09T16:09:18.731Z,99.80
2017-11-09T16:11:45.436Z,99.80
2017-11-09T16:14:11.406Z,99.80
2017-11-09T16:16:37.417Z,99.80
2017-11-09T16:19:04.122Z,99.60
2017-11-09T16:21:30.097Z,99.70
2017-11-09T16:23:56.079Z,99.80
2017-11-09T16:26:22.054Z,99.80
2017-11-09T16:28:48.058Z,99.90
2017-11-09T16:31:14.022Z,99.80
2017-11-09T16:33:40.017Z,99.90
2017-11-09T16:36:06.026Z,99.80
2017-11-09T16:38:31.970Z,99.90
2017-11-09T16:40:57.966Z,99.90
2017-11-09T16:43:23.928Z,99.90
2017-11-09T16:45:49.922Z,99.70
2017-11-09T16:48:16.920Z,99.90
2017-11-09T16:50:42.894Z,99.80
2017-11-09T16:53:08.874Z,99.90
2017-11-09T16:55:35.602Z,99.80
2017-11-09T16:58:01.842Z,99.80
2017-11-09T17:00:28.569Z,99.80
2017-11-09T17:02:54.519Z,99.80
2017-11-09T17:05:20.498Z,99.90
2017-11-09T17:07:46.455Z,99.70
2017-11-09T17:10:12.671Z,99.90
2017-11-09T17:12:39.370Z,99.70
2017-11-09T17:15:10.487Z,99.40
2017-11-09T17:17:36.485Z,99.50
2017-11-09T17:20:02.453Z,99.40
2017-11-09T17:22:28.424Z,99.50
2017-11-09T17:24:54.742Z,99.40
2017-11-09T17:27:21.442Z,99.50
2017-11-09T17:29:47.389Z,99.50
2017-11-09T17:32:13.413Z,99.60
2017-11-09T17:34:39.394Z,99.90
2017-11-09T17:37:05.382Z,99.90
2017-11-09T17:39:32.153Z,99.90
2017-11-09T17:41:58.172Z,99.90
2017-11-09T17:44:24.157Z,99.90
2017-11-09T17:46:50.127Z,99.90
2017-11-09T17:49:16.093Z,99.90
2017-11-09T17:51:42.802Z,99.90
2017-11-09T17:54:08.834Z,99.90
2017-11-09T17:56:34.800Z,99.90
2017-11-09T17:59:00.750Z,99.90
2017-11-09T18:01:26.714Z,99.90
2017-11-09T18:03:53.450Z,99.90
2017-11-09T18:06:20.173Z,99.90
2017-11-09T18:08:46.143Z,99.90
2017-11-09T18:11:12.138Z,99.90
2017-11-09T18:13:38.874Z,99.90
2017-11-09T18:16:05.789Z,99.90
2017-11-09T18:18:35.037Z,99.90
2017-11-09T18:21:06.216Z,99.90
2017-11-09T18:23:33.011Z,99.90
2017-11-09T18:25:59.738Z,99.90
2017-11-09T18:28:26.482Z,99.90
2017-11-09T18:30:53.213Z,99.90
2017-11-09T18:33:19.180Z,99.90
2017-11-09T18:35:45.156Z,99.90
2017-11-09T18:38:11.138Z,99.90
2017-11-09T18:40:37.113Z,99.90
2017-11-09T18:43:03.833Z,99.90
2017-11-09T18:45:29.825Z,99.90
2017-11-09T18:47:55.798Z,99.90
2017-11-09T18:50:23.553Z,99.90
2017-11-09T18:52:50.620Z,99.90
2017-11-09T18:55:16.587Z,99.90
2017-11-09T18:57:50.274Z,99.90
2017-11-09T19:00:18.349Z,99.90
2017-11-09T19:02:47.220Z,99.90
2017-11-09T19:05:13.652Z,99.90
2017-11-09T19:07:39.643Z,99.90
2017-11-09T19:10:05.594Z,99.90
2017-11-09T19:12:33.760Z,99.90
2017-11-09T19:14:59.749Z,99.90
2017-11-09T19:17:26.454Z,99.90
2017-11-09T19:19:52.472Z,99.90
2017-11-09T19:22:18.592Z,99.90
2017-11-09T19:24:47.286Z,99.90
2017-11-09T19:27:13.289Z,99.90
2017-11-09T19:29:39.261Z,99.90
2017-11-09T19:32:05.958Z,99.90
2017-11-09T19:34:32.010Z,99.90
2017-11-09T19:36:57.985Z,99.90
2017-11-09T19:39:25.913Z,99.90
2017-11-09T19:41:51.977Z,99.90
2017-11-09T19:44:17.946Z,99.90
2017-11-09T19:46:43.932Z,99.90
2017-11-09T19:49:10.209Z,99.90
2017-11-09T19:51:36.221Z,99.90
2017-11-09T19:54:02.196Z,99.90
2017-11-09T19:56:28.520Z,99.90
2017-11-09T19:58:54.744Z,99.90
2017-11-09T20:01:20.733Z,99.90
2017-11-09T20:03:47.479Z,99.90
2017-11-09T20:06:14.305Z,99.90
2017-11-09T20:08:40.270Z,99.90
2017-11-09T20:11:07.109Z,99.90
2017-11-09T20:13:33.094Z,99.90
2017-11-09T20:15:59.801Z,99.90
2017-11-09T20:18:25.794Z,99.90
2017-11-09T20:20:51.771Z,99.90
2017-11-09T20:23:17.735Z,99.90
2017-11-09T20:25:43.742Z,99.90
2017-11-09T20:28:09.710Z,99.90
2017-11-09T20:30:36.438Z,99.90
2017-11-09T20:33:02.453Z,99.90
2017-11-09T20:35:28.434Z,99.90
2017-11-09T20:37:59.495Z,99.90
2017-11-09T20:40:25.508Z,99.90
2017-11-09T20:42:51.517Z,99.90
2017-11-09T20:45:18.271Z,99.90
2017-11-09T20:47:44.531Z,99.90
2017-11-09T20:50:10.545Z,99.90
2017-11-09T20:52:36.515Z,99.90
2017-11-09T20:55:02.483Z,99.90
2017-11-09T20:57:28.454Z,99.90
2017-11-09T20:59:55.210Z,99.90
2017-11-09T21:02:24.101Z,99.90
2017-11-09T21:04:50.089Z,99.90
2017-11-09T21:07:16.062Z,99.90
2017-11-09T21:09:42.055Z,99.90
2017-11-09T21:12:08.794Z,99.90
2017-11-09T21:14:35.504Z,99.90
2017-11-09T21:17:01.474Z,99.90
2017-11-09T21:19:27.434Z,99.90
2017-11-09T21:21:53.442Z,99.90
2017-11-09T21:24:19.430Z,99.90
2017-11-09T21:26:46.168Z,99.90
2017-11-09T21:29:12.890Z,99.90
2017-11-09T21:31:39.071Z,99.90
2017-11-09T21:34:05.032Z,99.90
2017-11-09T21:36:31.013Z,99.90
2017-11-09T21:38:57.001Z,99.90
2017-11-09T21:41:23.702Z,99.90
2017-11-09T21:43:49.671Z,99.90
2017-11-09T21:46:15.903Z,99.90
2017-11-09T21:48:41.862Z,99.90
2017-11-09T21:51:09.754Z,99.90
2017-11-09T21:53:35.889Z,99.90
2017-11-09T21:56:02.652Z,99.90
2017-11-09T21:58:28.711Z,99.90
2017-11-09T22:00:55.003Z,99.90
2017-11-09T22:03:20.954Z,99.90
2017-11-09T22:05:46.962Z,99.90
2017-11-09T22:08:12.941Z,99.90
2017-11-09T22:10:38.923Z,99.90
2017-11-09T22:13:04.877Z,99.90
2017-11-09T22:15:31.614Z,99.90
2017-11-09T22:17:57.584Z,99.90
2017-11-09T22:20:23.557Z,99.90
2017-11-09T22:22:49.793Z,99.90
2017-11-09T22:25:15.790Z,99.90
2017-11-09T22:27:41.746Z,99.90
2017-11-09T22:30:08.487Z,99.90
2017-11-09T22:32:35.228Z,99.90
2017-11-09T22:35:01.938Z,99.90
2017-11-09T22:37:28.195Z,99.90
2017-11-09T22:40:01.705Z,99.90
2017-11-09T22:42:27.858Z,99.90
2017-11-09T22:44:53.847Z,99.90
2017-11-09T22:47:20.545Z,99.90
2017-11-09T22:49:46.574Z,99.90
2017-11-09T22:52:12.570Z,99.90
2017-11-09T22:54:38.517Z,99.90
2017-11-09T22:57:04.493Z,99.90
2017-11-09T22:59:30.437Z,99.90
2017-11-09T23:01:56.421Z,99.90
2017-11-09T23:04:22.394Z,99.90
2017-11-09T23:06:48.357Z,99.90
2017-11-09T23:09:15.290Z,99.90
2017-11-09T23:11:42.005Z,99.90
2017-11-09T23:14:07.982Z,99.90
2017-11-09T23:16:34.192Z,99.90
2017-11-09T23:19:00.174Z,99.90
2017-11-09T23:21:26.145Z,99.90
2017-11-09T23:23:52.134Z,99.90
2017-11-09T23:26:18.874Z,99.90
2017-11-09T23:28:45.586Z,99.90
2017-11-09T23:31:11.576Z,99.90
2017-11-09T23:33:37.551Z,99.90
2017-11-09T23:36:03.514Z,99.90
2017-11-09T23:38:29.506Z,99.90
2017-11-09T23:40:55.469Z,99.90
2017-11-09T23:43:21.413Z,99.90
2017-11-09T23:45:47.386Z,99.90
2017-11-09T23:48:13.349Z,99.90
2017-11-09T23:50:39.336Z,99.90
2017-11-09T23:53:05.295Z,99.90
2017-11-09T23:55:31.297Z,99.90
2017-11-09T23:57:57.541Z,99.90
